Time;durP1;ratioP1;P1;durP2;ratioP2;P2;SDS_P1;SDS_P2;PMS_P1;PMS_P2;Temp;Humidity;BMP_temperature;BMP_pressure;BME280_temperature;BME280_humidity;BME280_pressure;Samples;Min_cycle;Max_cycle;Signal;HPM_P1;HPM_P2
2023/06/15 00:00:27;;;;;;;5.47;2.10;;;17.90;95.60;;;;;;6215176;23;20102;-73
2023/06/15 00:02:53;;;;;;;3.78;2.40;;;17.90;95.70;;;;;;6215546;23;20771;-75
2023/06/15 00:05:18;;;;;;;5.53;2.20;;;17.80;95.80;;;;;;6215992;23;20081;-73
2023/06/15 00:07:44;;;;;;;3.97;2.58;;;17.80;95.80;;;;;;6216126;23;20069;-73
2023/06/15 00:10:11;;;;;;;2.15;1.88;;;17.80;95.70;;;;;;6243625;23;20081;-73
2023/06/15 00:12:36;;;;;;;7.25;1.92;;;17.70;95.80;;;;;;6217647;23;20020;-73
2023/06/15 00:15:03;;;;;;;3.90;2.15;;;17.70;95.90;;;;;;6217916;23;20091;-73
2023/06/15 00:17:31;;;;;;;5.65;2.13;;;17.70;95.90;;;;;;6218390;23;20046;-73
2023/06/15 00:20:00;;;;;;;3.85;2.15;;;17.60;95.80;;;;;;6218408;23;20348;-73
2023/06/15 00:22:28;;;;;;;4.60;2.22;;;17.60;96.20;;;;;;6244920;23;20040;-73
2023/06/15 00:24:55;;;;;;;3.75;2.00;;;17.50;96.30;;;;;;6216037;23;20019;-73
2023/06/15 00:27:21;;;;;;;5.45;2.15;;;17.40;96.30;;;;;;6215638;23;20024;-73
2023/06/15 00:29:47;;;;;;;3.28;2.40;;;17.50;96.30;;;;;;6215285;23;20500;-73
2023/06/15 00:32:12;;;;;;;3.95;2.53;;;17.30;96.60;;;;;;6215284;23;20024;-74
2023/06/15 00:34:38;;;;;;;4.65;2.03;;;17.30;96.60;;;;;;6215329;23;20051;-73
2023/06/15 00:37:05;;;;;;;4.85;2.13;;;17.30;96.60;;;;;;6242162;23;20087;-73
2023/06/15 00:39:31;;;;;;;3.92;2.20;;;17.20;96.70;;;;;;6242436;23;20016;-73
2023/06/15 00:41:56;;;;;;;2.95;1.92;;;17.10;96.80;;;;;;6190554;23;20398;-73
2023/06/15 00:44:22;;;;;;;4.25;2.47;;;17.10;97.00;;;;;;6215378;23;20028;-73
2023/06/15 00:46:48;;;;;;;3.17;2.20;;;17.10;97.00;;;;;;6243065;23;20027;-73
2023/06/15 00:49:14;;;;;;;4.25;2.10;;;17.10;97.20;;;;;;6215251;23;20091;-73
2023/06/15 00:51:41;;;;;;;3.80;2.00;;;17.00;97.20;;;;;;6215247;23;20087;-73
2023/06/15 00:54:08;;;;;;;3.17;2.20;;;17.00;97.20;;;;;;6215066;23;20070;-73
2023/06/15 00:56:35;;;;;;;4.65;2.30;;;16.90;97.40;;;;;;6215150;23;20020;-73
2023/06/15 00:59:01;;;;;;;4.63;2.08;;;16.90;97.40;;;;;;6214797;23;20020;-73
2023/06/15 01:01:26;;;;;;;2.47;2.22;;;16.90;97.30;;;;;;6242070;23;20020;-73
2023/06/15 01:03:54;;;;;;;3.17;2.08;;;16.90;97.50;;;;;;6242053;23;20039;-73
2023/06/15 01:06:24;;;;;;;5.78;2.42;;;17.00;97.30;;;;;;6214878;23;20018;-73
2023/06/15 01:08:52;;;;;;;4.72;2.15;;;16.90;97.50;;;;;;6215019;23;20089;-73
2023/06/15 01:11:18;;;;;;;4.28;2.40;;;16.80;97.60;;;;;;6215019;23;20024;-72
2023/06/15 01:13:45;;;;;;;6.13;2.47;;;16.80;97.60;;;;;;6241597;23;20024;-73
2023/06/15 01:16:21;;;;;;;6.90;2.40;;;16.80;97.60;;;;;;6215059;23;20075;-73
2023/06/15 01:18:50;;;;;;;5.57;2.05;;;16.90;97.80;;;;;;6214951;23;20024;-73
2023/06/15 01:21:17;;;;;;;4.03;2.05;;;16.80;97.70;;;;;;6241729;23;20020;-72
2023/06/15 01:23:56;;;;;;;3.42;2.20;;;16.90;97.70;;;;;;6215072;23;20024;-73
2023/06/15 01:26:24;;;;;;;5.78;2.10;;;16.80;97.90;;;;;;6214727;23;20031;-73
2023/06/15 01:28:50;;;;;;;5.30;2.50;;;16.70;98.00;;;;;;6214476;23;20375;-72
2023/06/15 01:31:17;;;;;;;5.90;2.58;;;16.70;98.00;;;;;;6214757;23;20047;-72
2023/06/15 01:33:50;;;;;;;3.72;2.13;;;16.60;98.10;;;;;;6242502;23;20299;-73
2023/06/15 01:36:18;;;;;;;2.95;2.00;;;16.50;98.30;;;;;;6189490;23;20020;-73
2023/06/15 01:38:49;;;;;;;4.10;2.60;;;16.60;98.40;;;;;;6189608;23;20023;-73
2023/06/15 01:41:17;;;;;;;7.18;2.67;;;16.60;98.40;;;;;;6214793;23;20104;-72
2023/06/15 01:43:43;;;;;;;3.47;2.15;;;16.60;98.40;;;;;;6214356;23;20043;-73
2023/06/15 01:46:09;;;;;;;11.77;2.63;;;16.60;98.40;;;;;;6214376;23;20012;-72
2023/06/15 01:48:36;;;;;;;5.10;2.67;;;16.60;98.70;;;;;;6241343;23;20030;-73
2023/06/15 01:51:02;;;;;;;6.10;2.33;;;16.60;98.70;;;;;;6214504;23;20023;-73
2023/06/15 01:53:28;;;;;;;5.75;2.53;;;16.60;98.80;;;;;;6214828;23;20028;-73
2023/06/15 01:55:55;;;;;;;5.20;2.63;;;16.60;99.00;;;;;;6214391;23;20095;-73
2023/06/15 01:58:21;;;;;;;3.55;2.13;;;16.50;99.10;;;;;;6215003;23;20074;-73
2023/06/15 02:00:47;;;;;;;3.13;2.45;;;16.40;99.40;;;;;;6214239;23;20053;-73
2023/06/15 02:03:12;;;;;;;3.92;2.60;;;16.40;99.90;;;;;;6214536;23;20016;-73
2023/06/15 02:05:40;;;;;;;6.85;2.47;;;16.40;99.20;;;;;;6241303;23;20266;-73
2023/06/15 02:08:09;;;;;;;4.78;2.97;;;16.30;99.90;;;;;;6241320;23;20074;-73
2023/06/15 02:10:35;;;;;;;5.15;2.58;;;16.40;99.20;;;;;;6241644;23;20841;-73
2023/06/15 02:13:01;;;;;;;3.42;2.35;;;16.40;99.30;;;;;;6214346;23;20074;-73
2023/06/15 02:15:28;;;;;;;7.93;3.63;;;16.30;99.20;;;;;;6242002;23;20016;-73
2023/06/15 02:18:01;;;;;;;3.83;2.17;;;16.20;99.40;;;;;;6241707;23;20031;-72
2023/06/15 02:20:30;;;;;;;3.95;2.53;;;16.20;99.60;;;;;;6241929;23;20055;-73
2023/06/15 02:22:59;;;;;;;3.45;2.30;;;16.20;99.30;;;;;;6241227;23;20356;-72
2023/06/15 02:25:25;;;;;;;5.07;2.15;;;16.10;99.60;;;;;;6214777;23;20326;-73
2023/06/15 02:27:51;;;;;;;5.28;2.72;;;16.20;99.60;;;;;;6215345;23;20024;-73
2023/06/15 02:30:19;;;;;;;5.22;3.47;;;16.10;99.80;;;;;;6215100;23;20023;-73
2023/06/15 02:32:48;;;;;;;4.07;2.58;;;16.10;99.60;;;;;;6214033;23;20087;-73
2023/06/15 02:35:14;;;;;;;4.97;2.10;;;16.10;99.90;;;;;;6189196;23;20028;-72
2023/06/15 02:37:40;;;;;;;5.50;2.80;;;16.10;99.90;;;;;;6214114;23;20020;-73
2023/06/15 02:40:08;;;;;;;4.20;2.92;;;16.00;99.90;;;;;;6240990;23;20051;-73
2023/06/15 02:42:35;;;;;;;3.72;2.22;;;16.00;99.90;;;;;;6213698;23;20015;-73
2023/06/15 02:45:02;;;;;;;3.70;2.53;;;16.00;99.90;;;;;;6189031;23;20020;-73
2023/06/15 02:47:31;;;;;;;5.82;2.83;;;15.90;99.90;;;;;;6241350;23;20020;-73
2023/06/15 02:49:59;;;;;;;4.47;2.42;;;15.80;99.90;;;;;;6214308;23;20016;-73
2023/06/15 02:52:26;;;;;;;4.25;2.63;;;15.80;99.90;;;;;;6214377;23;20016;-73
2023/06/15 02:54:52;;;;;;;4.47;2.90;;;15.80;99.90;;;;;;6188938;23;20581;-73
2023/06/15 02:57:18;;;;;;;6.30;2.30;;;15.80;99.90;;;;;;6214184;23;20090;-73
2023/06/15 02:59:44;;;;;;;3.28;2.60;;;15.80;99.90;;;;;;6214018;23;20028;-72
2023/06/15 03:02:11;;;;;;;5.72;2.80;;;15.70;99.90;;;;;;6214251;23;20024;-73
2023/06/15 03:04:44;;;;;;;5.15;2.97;;;15.80;99.90;;;;;;6214105;23;20020;-73
2023/06/15 03:07:11;;;;;;;6.05;2.80;;;15.70;99.90;;;;;;6240806;23;20024;-73
2023/06/15 03:09:37;;;;;;;6.47;2.88;;;15.70;99.90;;;;;;6241026;23;20216;-73
2023/06/15 03:12:03;;;;;;;4.78;2.60;;;15.70;99.90;;;;;;6241040;23;20020;-73
2023/06/15 03:14:28;;;;;;;4.90;2.60;;;15.70;99.90;;;;;;6240609;23;20093;-73
2023/06/15 03:16:55;;;;;;;8.50;3.42;;;15.70;99.90;;;;;;6241204;23;20016;-73
2023/06/15 03:19:21;;;;;;;8.00;3.33;;;15.70;99.90;;;;;;6213532;23;20417;-73
2023/06/15 03:21:47;;;;;;;5.88;2.70;;;15.70;99.90;;;;;;6240427;23;20055;-73
2023/06/15 03:24:13;;;;;;;4.00;2.58;;;15.70;99.90;;;;;;6240245;23;20513;-73
2023/06/15 03:26:43;;;;;;;5.00;2.97;;;15.60;99.90;;;;;;6188733;23;20563;-73
2023/06/15 03:29:09;;;;;;;5.88;2.75;;;15.70;99.90;;;;;;6213771;23;20085;-73
2023/06/15 03:31:40;;;;;;;6.25;3.17;;;15.60;99.90;;;;;;6241208;23;20008;-73
2023/06/15 03:34:10;;;;;;;5.40;2.60;;;15.60;99.90;;;;;;6213971;23;20020;-73
2023/06/15 03:36:36;;;;;;;7.47;3.30;;;15.50;99.90;;;;;;6213828;23;20024;-73
2023/06/15 03:39:03;;;;;;;12.23;4.53;;;15.50;99.90;;;;;;6213535;23;20031;-73
2023/06/15 03:41:30;;;;;;;7.50;3.08;;;15.50;99.90;;;;;;6188853;23;20016;-73
2023/06/15 03:43:56;;;;;;;8.80;3.40;;;15.50;99.90;;;;;;6213901;23;20083;-73
2023/06/15 03:46:22;;;;;;;4.88;3.45;;;15.60;99.90;;;;;;6213699;23;20035;-73
2023/06/15 03:48:51;;;;;;;3.55;2.70;;;15.70;99.90;;;;;;6188843;23;20366;-73
2023/06/15 03:51:17;;;;;;;6.53;3.10;;;15.70;99.90;;;;;;6213861;23;20024;-72
2023/06/15 03:53:43;;;;;;;6.97;3.28;;;15.70;99.90;;;;;;6188393;23;20047;-73
2023/06/15 03:56:09;;;;;;;4.63;3.15;;;15.70;99.90;;;;;;6213821;23;20058;-73
2023/06/15 03:58:34;;;;;;;5.35;3.30;;;15.70;99.90;;;;;;6213804;23;20020;-73
2023/06/15 04:01:01;;;;;;;6.05;2.75;;;15.70;99.90;;;;;;6213888;23;20031;-73
2023/06/15 04:03:27;;;;;;;6.38;3.15;;;15.80;99.90;;;;;;6213510;23;20016;-73
2023/06/15 04:05:53;;;;;;;4.85;2.95;;;15.90;99.90;;;;;;6213937;23;20058;-73
2023/06/15 04:08:19;;;;;;;6.85;3.15;;;15.90;99.90;;;;;;6188540;23;20431;-73
2023/06/15 04:10:45;;;;;;;3.83;2.80;;;15.90;99.90;;;;;;6214664;23;20012;-73
2023/06/15 04:13:10;;;;;;;6.10;3.22;;;15.90;99.90;;;;;;6215144;23;20095;-73
2023/06/15 04:15:36;;;;;;;5.05;3.05;;;15.90;99.90;;;;;;6190377;23;20054;-72
2023/06/15 04:18:02;;;;;;;5.63;3.17;;;16.10;99.90;;;;;;6215428;23;20020;-73
2023/06/15 04:20:29;;;;;;;3.33;2.83;;;16.20;99.90;;;;;;6215212;23;20020;-72
2023/06/15 04:22:57;;;;;;;5.97;3.15;;;16.20;99.90;;;;;;6188952;22;20016;-73
2023/06/15 04:25:23;;;;;;;4.28;2.58;;;16.20;99.90;;;;;;6203256;23;20155;-73
2023/06/15 04:27:49;;;;;;;5.82;3.55;;;16.30;99.90;;;;;;6215836;23;20403;-73
2023/06/15 04:30:16;;;;;;;5.68;3.00;;;16.30;99.90;;;;;;6215546;23;20012;-73
2023/06/15 04:32:46;;;;;;;4.97;3.25;;;16.40;99.90;;;;;;6215352;23;20030;-73
2023/06/15 04:35:17;;;;;;;4.38;2.92;;;16.40;99.90;;;;;;6215352;23;20016;-73
2023/06/15 04:37:44;;;;;;;7.15;2.75;;;16.50;99.90;;;;;;6215104;23;20020;-73
2023/06/15 04:40:11;;;;;;;4.45;3.00;;;16.60;99.90;;;;;;6190107;23;20020;-73
2023/06/15 04:42:37;;;;;;;4.65;2.78;;;16.60;99.90;;;;;;6190274;23;20020;-72
2023/06/15 04:45:05;;;;;;;3.53;2.72;;;16.80;99.90;;;;;;6215283;23;20020;-73
2023/06/15 04:47:31;;;;;;;7.55;3.20;;;16.90;99.90;;;;;;6214979;23;20020;-73
2023/06/15 04:49:57;;;;;;;4.93;3.00;;;17.00;99.80;;;;;;6242098;23;20023;-72
2023/06/15 04:52:22;;;;;;;8.25;3.63;;;17.10;99.80;;;;;;6215686;23;20016;-73
2023/06/15 04:54:48;;;;;;;4.40;2.85;;;17.20;99.50;;;;;;6215358;23;20123;-73
2023/06/15 04:57:14;;;;;;;6.50;3.35;;;17.30;99.50;;;;;;6242811;23;20015;-73
2023/06/15 04:59:40;;;;;;;7.38;2.97;;;17.50;99.50;;;;;;6242161;23;20101;-73
2023/06/15 05:02:07;;;;;;;6.53;3.35;;;17.60;99.10;;;;;;6215193;23;20024;-77
2023/06/15 05:04:32;;;;;;;8.73;4.00;;;17.40;98.60;;;;;;6190246;23;20020;-77
2023/06/15 05:06:59;;;;;;;7.68;3.08;;;17.30;99.20;;;;;;6190507;23;20081;-78
2023/06/15 05:09:25;;;;;;;5.47;2.90;;;17.30;99.30;;;;;;6216216;23;20020;-78
2023/06/15 05:11:50;;;;;;;4.63;3.00;;;17.20;99.40;;;;;;6243413;23;20016;-77
2023/06/15 05:14:16;;;;;;;9.05;3.45;;;17.20;99.10;;;;;;6216953;23;20024;-77
2023/06/15 05:16:42;;;;;;;6.35;3.42;;;17.10;99.00;;;;;;6215634;23;20016;-77
2023/06/15 05:19:07;;;;;;;6.30;3.22;;;17.40;99.10;;;;;;6215443;23;20090;-79
2023/06/15 05:21:33;;;;;;;5.80;3.10;;;17.10;99.30;;;;;;6215462;23;20450;-78
2023/06/15 05:23:59;;;;;;;8.93;3.10;;;17.10;99.20;;;;;;6242656;23;20015;-79
2023/06/15 05:26:25;;;;;;;6.35;3.15;;;17.20;99.20;;;;;;6215495;23;20449;-78
2023/06/15 05:28:52;;;;;;;4.05;3.55;;;17.20;99.20;;;;;;6215551;23;20016;-79
2023/06/15 05:31:18;;;;;;;5.50;3.15;;;17.20;98.90;;;;;;6242915;23;20016;-79
2023/06/15 05:33:44;;;;;;;5.22;3.55;;;17.40;99.00;;;;;;6242660;23;20051;-80
2023/06/15 05:36:09;;;;;;;9.10;3.00;;;17.40;99.20;;;;;;6220382;23;20111;-78
2023/06/15 05:38:35;;;;;;;4.32;2.95;;;17.40;99.00;;;;;;6221909;23;20016;-77
2023/06/15 05:41:01;;;;;;;3.75;2.85;;;17.60;98.60;;;;;;6222073;23;20113;-78
2023/06/15 05:43:27;;;;;;;4.93;3.28;;;17.60;98.20;;;;;;6249234;23;20023;-78
2023/06/15 05:45:52;;;;;;;4.72;2.80;;;17.80;98.50;;;;;;6197285;23;20020;-78
2023/06/15 05:48:19;;;;;;;4.15;2.60;;;17.80;98.10;;;;;;6221118;23;20020;-78
2023/06/15 05:50:46;;;;;;;5.68;2.63;;;18.00;98.00;;;;;;6220456;23;20079;-75
2023/06/15 05:53:11;;;;;;;6.05;3.13;;;18.10;97.80;;;;;;6246796;23;20068;-76
2023/06/15 05:55:37;;;;;;;5.85;2.60;;;18.20;97.40;;;;;;6246638;23;20089;-75
2023/06/15 05:58:03;;;;;;;5.60;2.70;;;18.30;97.00;;;;;;6241399;23;20022;-75
2023/06/15 06:00:31;;;;;;;3.63;2.72;;;18.40;96.90;;;;;;6214885;23;20070;-76
2023/06/15 06:02:58;;;;;;;6.55;3.13;;;18.30;96.30;;;;;;6213815;23;20612;-76
2023/06/15 06:05:23;;;;;;;4.30;2.50;;;18.60;96.50;;;;;;6214360;23;20086;-76
2023/06/15 06:07:50;;;;;;;4.35;2.17;;;18.50;95.30;;;;;;6214353;23;20020;-74
2023/06/15 06:10:19;;;;;;;4.40;2.92;;;18.60;96.20;;;;;;6189377;23;20046;-74
2023/06/15 06:12:45;;;;;;;6.18;2.50;;;18.70;95.70;;;;;;6192164;23;20084;-67
2023/06/15 06:15:11;;;;;;;5.22;2.70;;;18.80;95.70;;;;;;6224023;23;20032;-67
2023/06/15 06:17:36;;;;;;;5.45;2.78;;;18.80;95.00;;;;;;6252707;23;20099;-67
2023/06/15 06:20:05;;;;;;;3.55;2.42;;;19.00;95.00;;;;;;6250713;23;20024;-67
2023/06/15 06:22:32;;;;;;;3.83;1.95;;;19.10;95.00;;;;;;6252845;23;20020;-67
2023/06/15 06:24:57;;;;;;;8.40;4.63;;;19.00;95.00;;;;;;6223817;23;20027;-67
2023/06/15 06:27:23;;;;;;;5.95;2.50;;;19.20;93.90;;;;;;6225076;23;20020;-68
2023/06/15 06:29:49;;;;;;;4.90;2.78;;;19.00;93.70;;;;;;6252408;23;20739;-67
2023/06/15 06:32:15;;;;;;;4.30;2.40;;;19.20;94.10;;;;;;6250806;23;20027;-69
2023/06/15 06:34:40;;;;;;;5.60;2.88;;;19.30;94.00;;;;;;6251644;23;20051;-69
2023/06/15 06:37:06;;;;;;;7.57;2.28;;;19.30;93.80;;;;;;6222980;23;20020;-69
2023/06/15 06:39:32;;;;;;;4.30;1.98;;;19.40;93.90;;;;;;6252598;23;20400;-69
2023/06/15 06:41:58;;;;;;;3.80;2.30;;;19.50;93.20;;;;;;6250591;23;20024;-68
2023/06/15 06:44:24;;;;;;;6.18;2.50;;;19.70;93.30;;;;;;6252463;23;20047;-68
2023/06/15 06:46:50;;;;;;;5.28;2.78;;;19.70;93.30;;;;;;6224386;23;20017;-68
2023/06/15 06:49:15;;;;;;;4.57;2.70;;;19.70;92.60;;;;;;6251149;23;20027;-68
2023/06/15 06:51:41;;;;;;;3.28;2.40;;;19.60;92.90;;;;;;6252795;23;20146;-69
2023/06/15 06:54:07;;;;;;;7.15;2.00;;;19.70;92.50;;;;;;6223404;23;20062;-68
2023/06/15 06:56:33;;;;;;;6.47;2.33;;;19.80;92.70;;;;;;6252388;23;20044;-69
2023/06/15 06:58:59;;;;;;;5.70;2.28;;;20.00;92.60;;;;;;6223821;23;20017;-69
2023/06/15 07:01:25;;;;;;;9.13;2.53;;;20.10;92.80;;;;;;6252611;23;20031;-68
2023/06/15 07:03:50;;;;;;;5.30;2.47;;;20.10;92.80;;;;;;6251931;23;20046;-69
2023/06/15 07:06:16;;;;;;;3.85;2.53;;;20.20;92.60;;;;;;6224089;23;20059;-68
2023/06/15 07:08:42;;;;;;;3.67;2.35;;;20.30;92.70;;;;;;6252482;23;20031;-69
2023/06/15 07:11:08;;;;;;;5.82;2.58;;;20.50;92.60;;;;;;6250267;23;20381;-69
2023/06/15 07:13:34;;;;;;;7.65;3.28;;;20.40;92.20;;;;;;6251748;23;20023;-63
2023/06/15 07:16:00;;;;;;;5.38;2.53;;;20.50;92.50;;;;;;6250358;23;20022;-63
2023/06/15 07:18:26;;;;;;;6.53;2.47;;;20.80;92.50;;;;;;6252673;23;20047;-63
2023/06/15 07:20:55;;;;;;;5.07;2.45;;;21.00;91.80;;;;;;6250747;23;20023;-62
2023/06/15 07:23:24;;;;;;;3.97;2.67;;;21.20;91.70;;;;;;6251885;23;20024;-62
2023/06/15 07:25:52;;;;;;;4.20;2.17;;;21.20;91.00;;;;;;6250351;23;20016;-63
2023/06/15 07:28:18;;;;;;;6.13;2.63;;;21.40;91.20;;;;;;6249986;23;20023;-63
2023/06/15 07:30:46;;;;;;;3.58;2.30;;;21.40;90.90;;;;;;6252192;23;20028;-63
2023/06/15 07:33:12;;;;;;;5.95;2.63;;;21.50;90.60;;;;;;6249748;23;20012;-63
2023/06/15 07:35:38;;;;;;;5.28;2.33;;;21.60;90.80;;;;;;6252317;23;20020;-63
2023/06/15 07:38:04;;;;;;;3.17;2.17;;;21.70;91.10;;;;;;6250929;23;20031;-63
2023/06/15 07:40:30;;;;;;;3.60;2.58;;;21.80;91.00;;;;;;6251299;23;20019;-62
2023/06/15 07:42:56;;;;;;;4.32;2.35;;;21.70;90.80;;;;;;6252233;23;20020;-63
2023/06/15 07:45:21;;;;;;;3.80;2.28;;;21.90;90.40;;;;;;6250575;23;20043;-62
2023/06/15 07:47:47;;;;;;;5.25;2.58;;;22.00;90.90;;;;;;6254356;23;20035;-63
2023/06/15 07:50:13;;;;;;;5.35;2.35;;;22.20;90.90;;;;;;6252387;23;20023;-63
2023/06/15 07:52:38;;;;;;;5.10;2.88;;;22.30;90.70;;;;;;6254271;23;20348;-62
2023/06/15 07:55:06;;;;;;;2.85;2.22;;;22.60;90.60;;;;;;6224983;23;20028;-62
2023/06/15 07:57:34;;;;;;;6.47;2.35;;;22.50;90.00;;;;;;6252982;23;20027;-64
2023/06/15 08:00:03;;;;;;;3.08;1.90;;;22.60;89.70;;;;;;6254140;23;20020;-62
2023/06/15 08:02:28;;;;;;;4.07;2.25;;;22.70;88.50;;;;;;6225026;23;20030;-63
2023/06/15 08:04:54;;;;;;;4.38;2.28;;;22.70;89.40;;;;;;6254306;23;20031;-63
2023/06/15 08:07:20;;;;;;;4.78;2.30;;;22.80;89.20;;;;;;6252128;23;20158;-63
2023/06/15 08:09:45;;;;;;;3.55;2.15;;;22.80;87.60;;;;;;6254275;23;20016;-64
2023/06/15 08:12:11;;;;;;;5.65;2.35;;;22.80;86.60;;;;;;6252273;23;20020;-62
2023/06/15 08:14:37;;;;;;;6.20;2.08;;;22.80;86.00;;;;;;6253374;23;20369;-63
2023/06/15 08:17:03;;;;;;;2.95;1.98;;;22.80;87.00;;;;;;6254102;23;20031;-63
2023/06/15 08:19:29;;;;;;;5.13;2.20;;;22.90;87.10;;;;;;6252229;23;20048;-63
2023/06/15 08:21:55;;;;;;;4.82;2.30;;;22.90;86.60;;;;;;6253840;23;20016;-63
2023/06/15 08:24:20;;;;;;;9.90;2.38;;;23.00;86.80;;;;;;6252132;23;20081;-63
2023/06/15 08:26:48;;;;;;;7.47;2.00;;;23.10;86.90;;;;;;6254179;23;20400;-63
2023/06/15 08:29:15;;;;;;;5.57;1.77;;;23.10;83.60;;;;;;6225447;23;20024;-63
2023/06/15 08:31:40;;;;;;;4.68;2.35;;;23.30;84.90;;;;;;6253946;23;20031;-63
2023/06/15 08:34:07;;;;;;;7.47;2.35;;;23.20;85.60;;;;;;6254108;23;20020;-63
2023/06/15 08:36:33;;;;;;;3.83;2.15;;;23.30;85.50;;;;;;6252254;23;20509;-63
2023/06/15 08:38:58;;;;;;;3.65;2.55;;;23.40;86.00;;;;;;6254192;23;20023;-63
2023/06/15 08:41:27;;;;;;;4.65;2.85;;;23.40;84.10;;;;;;6251965;23;20016;-67
2023/06/15 08:43:56;;;;;;;5.88;2.30;;;23.30;83.20;;;;;;6226757;23;20020;-63
2023/06/15 08:46:24;;;;;;;6.32;2.53;;;23.30;83.50;;;;;;6252315;23;20020;-63
2023/06/15 08:48:52;;;;;;;5.20;2.10;;;23.30;81.80;;;;;;6253364;23;20020;-63
2023/06/15 08:51:19;;;;;;;6.55;2.05;;;23.40;83.90;;;;;;6253720;23;20020;-63
2023/06/15 08:53:46;;;;;;;6.03;2.03;;;23.50;83.70;;;;;;6252091;23;20058;-63
2023/06/15 08:56:12;;;;;;;6.43;2.05;;;23.40;83.10;;;;;;6253321;23;20572;-63
2023/06/15 08:58:49;;;;;;;5.18;2.50;;;23.40;83.30;;;;;;6251572;23;20027;-63
2023/06/15 09:01:21;;;;;;;3.30;2.30;;;23.50;80.80;;;;;;6253858;23;20016;-63
2023/06/15 09:03:48;;;;;;;;;;;23.70;82.90;;;;;;6253276;23;20468;-63
2023/06/15 09:06:14;;;;;;;6.35;2.35;;;23.60;81.70;;;;;;6252968;23;20084;-65
2023/06/15 09:08:40;;;;;;;4.22;2.75;;;23.60;83.40;;;;;;6226646;23;20050;-63
2023/06/15 09:11:07;;;;;;;7.45;2.33;;;23.70;81.80;;;;;;6251495;23;20020;-63
2023/06/15 09:13:33;;;;;;;3.28;2.20;;;23.60;82.40;;;;;;6253084;23;20035;-65
2023/06/15 09:16:00;;;;;;;2.83;2.10;;;23.60;82.00;;;;;;6251486;23;20336;-63
2023/06/15 09:18:26;;;;;;;4.25;2.33;;;23.60;81.30;;;;;;6253964;23;20019;-69
2023/06/15 09:20:59;;;;;;;2.70;2.15;;;23.60;82.30;;;;;;6252476;23;20031;-63
2023/06/15 09:23:25;;;;;;;8.35;2.22;;;23.70;81.30;;;;;;6225301;23;20016;-63
2023/06/15 09:25:52;;;;;;;8.30;2.40;;;23.70;82.10;;;;;;6253789;23;20048;-63
2023/06/15 09:28:24;;;;;;;5.50;2.28;;;23.80;82.00;;;;;;6251659;23;20020;-63
2023/06/15 09:30:55;;;;;;;;;;;23.80;82.10;;;;;;6254292;23;20064;-63
2023/06/15 09:33:22;;;;;;;2.72;2.35;;;23.70;79.90;;;;;;6251764;23;19947;-63
2023/06/15 09:35:53;;;;;;;4.75;2.60;;;23.70;80.80;;;;;;6253473;23;20063;-64
2023/06/15 09:38:19;;;;;;;4.60;2.50;;;23.80;81.80;;;;;;6226231;23;20020;-63
2023/06/15 09:40:45;;;;;;;5.80;2.53;;;23.80;82.20;;;;;;6251952;23;20688;-63
2023/06/15 09:43:12;;;;;;;5.18;2.63;;;23.90;82.00;;;;;;6226540;23;20027;-63
2023/06/15 09:45:51;;;;;;;7.45;2.47;;;24.10;81.40;;;;;;6251717;23;20484;-63
2023/06/15 09:48:17;;;;;;;5.90;2.10;;;24.10;81.40;;;;;;6253530;23;20438;-63
2023/06/15 09:50:43;;;;;;;6.90;2.33;;;24.20;81.10;;;;;;6252028;23;20194;-64
2023/06/15 09:53:12;;;;;;;3.88;2.17;;;24.20;79.80;;;;;;6252937;23;20024;-63
2023/06/15 09:55:43;;;;;;;3.22;2.30;;;24.20;79.30;;;;;;6226059;23;20023;-63
2023/06/15 09:58:10;;;;;;;3.45;2.28;;;24.20;79.70;;;;;;6251506;23;20020;-64
2023/06/15 10:00:36;;;;;;;3.10;2.10;;;24.30;80.20;;;;;;6253428;23;20020;-63
2023/06/15 10:03:03;;;;;;;5.38;2.25;;;24.30;79.10;;;;;;6250863;23;20030;-63
2023/06/15 10:05:32;;;;;;;3.90;2.63;;;24.40;78.60;;;;;;6253398;23;20070;-63
2023/06/15 10:08:01;;;;;;;3.78;2.65;;;24.40;77.70;;;;;;6252092;23;20024;-63
2023/06/15 10:10:29;;;;;;;6.75;2.60;;;24.20;77.60;;;;;;6251941;23;20016;-63
2023/06/15 10:13:00;;;;;;;6.10;2.10;;;24.40;77.90;;;;;;6252705;23;20023;-63
2023/06/15 10:15:28;;;;;;;3.40;2.45;;;24.40;77.60;;;;;;6251234;23;20028;-64
2023/06/15 10:17:56;;;;;;;2.80;2.33;;;24.40;77.10;;;;;;6253242;23;20021;-63
2023/06/15 10:20:23;;;;;;;6.75;2.30;;;24.40;77.60;;;;;;6251222;23;20112;-64
2023/06/15 10:22:59;;;;;;;6.25;2.10;;;24.40;77.40;;;;;;6253263;23;20050;-63
2023/06/15 10:25:27;;;;;;;5.70;1.98;;;24.40;76.80;;;;;;6252584;23;20055;-63
2023/06/15 10:27:54;;;;;;;3.47;2.33;;;24.40;78.20;;;;;;6251530;23;20379;-63
2023/06/15 10:30:35;;;;;;;4.55;2.63;;;24.50;75.30;;;;;;6253310;23;20511;-63
2023/06/15 10:33:08;;;;;;;5.35;2.40;;;24.60;74.60;;;;;;6251497;23;20027;-63
2023/06/15 10:36:07;;;;;;;3.08;2.03;;;24.60;74.20;;;;;;6253390;23;20072;-63
2023/06/15 10:38:49;;;;;;;6.60;2.65;;;24.60;74.90;;;;;;6239504;23;20016;-64
2023/06/15 10:41:15;;;;;;;4.10;2.47;;;24.60;75.50;;;;;;6224524;23;20046;-64
2023/06/15 10:43:59;;;;;;;5.45;2.28;;;24.60;76.10;;;;;;6253403;23;20052;-63
2023/06/15 10:46:34;;;;;;;4.40;2.30;;;24.60;74.30;;;;;;6252129;23;20438;-63
2023/06/15 10:49:09;;;;;;;3.47;2.92;;;24.60;74.10;;;;;;6252456;23;20044;-65
2023/06/15 10:51:38;;;;;;;3.88;2.70;;;24.70;75.80;;;;;;6253278;23;20018;-64
2023/06/15 10:54:05;;;;;;;4.47;2.58;;;25.00;76.40;;;;;;6250897;23;20095;-64
2023/06/15 10:56:31;;;;;;;7.20;2.33;;;25.20;76.10;;;;;;6253272;23;20028;-66
2023/06/15 10:58:59;;;;;;;3.60;2.28;;;25.10;75.60;;;;;;6251210;23;20023;-65
2023/06/15 11:01:32;;;;;;;3.55;2.65;;;25.10;75.00;;;;;;6226174;23;20020;-65
2023/06/15 11:03:59;;;;;;;4.13;2.28;;;25.00;72.70;;;;;;6252607;23;20074;-66
2023/06/15 11:06:33;;;;;;;5.45;2.25;;;25.00;74.40;;;;;;6251384;23;20116;-65
2023/06/15 11:09:07;;;;;;;5.93;3.10;;;24.90;73.20;;;;;;6252966;23;20161;-65
2023/06/15 11:11:34;;;;;;;4.35;2.28;;;25.00;74.50;;;;;;6224082;23;20023;-65
2023/06/15 11:14:02;;;;;;;5.47;2.30;;;25.10;75.00;;;;;;6252111;23;20023;-65
2023/06/15 11:16:38;;;;;;;2.13;1.88;;;25.20;74.60;;;;;;6250124;23;20024;-66
2023/06/15 11:19:10;;;;;;;8.07;1.98;;;25.10;71.40;;;;;;6251381;23;20103;-66
2023/06/15 11:21:40;;;;;;;4.80;2.13;;;25.00;71.80;;;;;;6227538;23;20024;-65
2023/06/15 11:24:06;;;;;;;2.97;2.15;;;24.80;71.40;;;;;;6253459;23;20019;-65
2023/06/15 11:26:34;;;;;;;9.05;2.35;;;25.00;74.40;;;;;;6255101;23;20024;-65
2023/06/15 11:29:03;;;;;;;3.40;2.60;;;25.20;74.30;;;;;;6253386;23;20083;-65
2023/06/15 11:31:31;;;;;;;4.43;2.78;;;25.30;74.40;;;;;;6254981;23;20366;-66
2023/06/15 11:33:57;;;;;;;4.05;2.13;;;25.20;74.00;;;;;;6254050;23;20087;-66
2023/06/15 11:36:23;;;;;;;3.92;2.15;;;25.10;74.50;;;;;;6253909;23;20028;-65
2023/06/15 11:38:49;;;;;;;4.63;2.28;;;25.10;73.80;;;;;;6254772;23;20016;-65
2023/06/15 11:41:15;;;;;;;4.75;2.50;;;25.30;74.60;;;;;;6252872;23;20019;-66
2023/06/15 11:43:48;;;;;;;6.25;2.75;;;25.30;74.40;;;;;;6255004;23;20024;-65
2023/06/15 11:46:20;;;;;;;4.57;2.47;;;25.30;73.90;;;;;;6253065;23;20031;-65
2023/06/15 11:48:47;;;;;;;6.07;2.70;;;25.30;74.00;;;;;;6254317;23;20030;-66
2023/06/15 11:51:15;;;;;;;4.18;2.55;;;25.20;74.10;;;;;;6226961;23;20044;-67
2023/06/15 11:53:45;;;;;;;3.45;2.40;;;25.20;74.30;;;;;;6253426;23;20031;-65
2023/06/15 11:56:13;;;;;;;3.40;2.50;;;25.30;73.30;;;;;;6255038;23;20123;-65
2023/06/15 11:58:43;;;;;;;3.10;2.33;;;25.30;73.80;;;;;;6253008;23;20044;-65
2023/06/15 12:01:14;;;;;;;4.10;2.55;;;25.40;74.20;;;;;;6202762;23;20027;-65
2023/06/15 12:03:45;;;;;;;5.45;2.78;;;25.40;74.30;;;;;;6253712;23;20012;-65
2023/06/15 12:06:15;;;;;;;4.25;2.50;;;25.40;74.50;;;;;;6254230;23;20889;-66
2023/06/15 12:08:43;;;;;;;2.63;1.95;;;25.40;72.80;;;;;;6254855;23;20024;-66
2023/06/15 12:11:09;;;;;;;3.67;2.38;;;25.50;74.20;;;;;;6253178;23;20012;-65
2023/06/15 12:13:41;;;;;;;4.20;2.38;;;25.60;73.20;;;;;;6254559;23;20071;-66
2023/06/15 12:16:08;;;;;;;4.15;2.30;;;25.60;74.10;;;;;;6253153;23;20032;-66
2023/06/15 12:18:34;;;;;;;3.90;1.90;;;26.00;74.80;;;;;;6254791;23;20047;-66
2023/06/15 12:21:03;;;;;;;5.45;2.35;;;25.80;74.20;;;;;;6253496;23;20023;-66
2023/06/15 12:23:30;;;;;;;3.63;1.92;;;25.80;73.20;;;;;;6253966;23;20114;-66
2023/06/15 12:25:57;;;;;;;4.03;2.30;;;25.70;73.40;;;;;;6254574;23;20016;-66
2023/06/15 12:28:24;;;;;;;6.93;2.03;;;25.60;72.00;;;;;;6252926;23;20047;-66
2023/06/15 12:30:50;;;;;;;7.43;2.80;;;25.60;73.60;;;;;;6254685;23;20016;-66
2023/06/15 12:33:38;;;;;;;4.07;2.53;;;25.80;73.70;;;;;;6224106;23;20020;-66
2023/06/15 12:36:10;;;;;;;4.05;2.95;;;25.70;72.00;;;;;;6252423;23;20117;-66
2023/06/15 12:38:36;;;;;;;4.50;2.20;;;25.70;72.30;;;;;;6252966;23;20016;-66
2023/06/15 12:41:02;;;;;;;7.07;2.53;;;25.70;72.30;;;;;;6251603;23;20020;-66
2023/06/15 12:43:28;;;;;;;3.35;2.08;;;25.90;72.80;;;;;;6253089;23;20063;-65
2023/06/15 12:45:54;;;;;;;5.95;2.65;;;26.10;73.10;;;;;;6251185;23;20036;-66
2023/06/15 12:48:23;;;;;;;2.92;2.13;;;26.10;72.80;;;;;;6253082;23;20012;-66